X  Blizu METAR Podaci o vazduhoplovstvu     EHKD De Kooy Airport
Temperatura
19°C Temperatura
15°C Tačka Rose
78% Vlaga



Vetar
9 M/S
21 MPS
34 KM/S
18 Čvorovi



230°
JZ
Trenutna situacija

Pretežno oblačno Pretežno oblačno
Vazdušni pritisak 1008.81 (hPa) - 29.79 (inHg)
Vidljivost 6 (Milje) - 9.7 (km)
Aerodrom
Aerodromski kod. EHKD

Lokacija: De Kooy Airport
Udaljenost: 34 (km)

Metar:
EHKD 161455Z AUTO 23018KT 190V260 9999 BKN015 BKN019 BKN220 19/15 Q1009 WHT NOSIG

Vreme: 16-07-2024 16:55 CEST